createdAt,value
2019-03-18T00:00:29.556Z,18.1
2019-03-18T00:01:19.296Z,18.1
2019-03-18T00:02:09.124Z,18.1
2019-03-18T00:02:59.636Z,18.1
2019-03-18T00:03:49.773Z,18.1
2019-03-18T00:04:40.089Z,18.1
2019-03-18T00:05:29.689Z,18.1
2019-03-18T00:06:19.409Z,18.1
2019-03-18T00:07:10.284Z,18.1
2019-03-18T00:08:00.089Z,18.1
2019-03-18T00:08:49.849Z,18.1
2019-03-18T00:09:39.638Z,18.1
2019-03-18T00:10:28.977Z,18.1
2019-03-18T00:11:20.026Z,18.1
2019-03-18T00:12:09.876Z,18.1
2019-03-18T00:13:00.441Z,18.1
2019-03-18T00:13:49.663Z,18.1
2019-03-18T00:14:40.003Z,18.1
2019-03-18T00:15:31.019Z,18.1
2019-03-18T00:16:19.601Z,18.1
2019-03-18T00:17:10.463Z,18.1
2019-03-18T00:18:00.268Z,18.1
2019-03-18T00:18:50.573Z,18.1
2019-03-18T00:19:43.458Z,18.1
2019-03-18T00:20:29.873Z,18.1
2019-03-18T00:21:20.486Z,18.1
2019-03-18T00:22:11.088Z,18.1
2019-03-18T00:23:01.181Z,18.1
2019-03-18T00:23:50.943Z,18.1
2019-03-18T00:24:41.290Z,18.1
2019-03-18T00:25:31.633Z,18.1
2019-03-18T00:26:20.845Z,18.1
2019-03-18T00:27:10.052Z,18.1
2019-03-18T00:28:01.508Z,18.1
2019-03-18T00:28:51.603Z,18.1
2019-03-18T00:29:41.705Z,18.1
2019-03-18T00:30:31.710Z,18.1
2019-03-18T00:31:21.184Z,18.1
2019-03-18T00:32:11.828Z,18.1
2019-03-18T00:33:04.783Z,18.1
2019-03-18T00:33:51.382Z,18.1
2019-03-18T00:34:41.710Z,18.1
2019-03-18T00:35:32.086Z,18.1
2019-03-18T00:36:21.855Z,18.1
2019-03-18T00:37:11.996Z,18.1
2019-03-18T00:38:02.544Z,18.1
2019-03-18T00:38:52.037Z,18.1
2019-03-18T00:39:41.877Z,18.1
2019-03-18T00:40:32.457Z,18.1
2019-03-18T00:41:21.392Z,18.1
2019-03-18T00:42:12.542Z,18.1
2019-03-18T00:43:02.089Z,18.1
2019-03-18T00:43:52.677Z,18.1
2019-03-18T00:44:42.457Z,18.1
2019-03-18T00:45:32.793Z,18.1
2019-03-18T00:46:22.867Z,18.1
2019-03-18T00:47:12.404Z,18.1
2019-03-18T00:48:02.464Z,18.1
2019-03-18T00:48:52.746Z,18.1
2019-03-18T00:49:43.067Z,18.1
2019-03-18T00:50:32.607Z,18.1
2019-03-18T00:51:22.922Z,18.1
2019-03-18T00:52:12.978Z,18.1
2019-03-18T00:53:03.051Z,18.1
2019-03-18T00:53:53.397Z,18.1
2019-03-18T00:54:43.212Z,18.1
2019-03-18T00:55:33.609Z,18.1
2019-03-18T00:56:23.906Z,18.1
2019-03-18T00:57:12.866Z,18.1
2019-03-18T00:58:03.439Z,18.1
2019-03-18T00:58:53.214Z,18.1
2019-03-18T00:59:42.503Z,18.1
2019-03-18T01:00:33.411Z,18.1
2019-03-18T01:01:23.437Z,18.1
2019-03-18T01:02:14.011Z,18.1
2019-03-18T01:03:03.224Z,18.1
2019-03-18T01:03:53.889Z,18.1
2019-03-18T01:04:43.896Z,18.1
2019-03-18T01:05:33.947Z,18.1
2019-03-18T01:06:23.509Z,18.1
2019-03-18T01:07:12.963Z,18.1
2019-03-18T01:08:04.207Z,18.1
2019-03-18T01:08:54.200Z,18.1
2019-03-18T01:09:44.311Z,18.1
2019-03-18T01:10:34.921Z,18.1
2019-03-18T01:11:23.820Z,18.1
2019-03-18T01:12:14.144Z,18.1
2019-03-18T01:13:03.943Z,18.1
2019-03-18T01:13:54.290Z,18.1
2019-03-18T01:14:44.910Z,18.1
2019-03-18T01:15:35.282Z,18.1
2019-03-18T01:16:24.708Z,18.1
2019-03-18T01:17:15.352Z,18.1
2019-03-18T01:18:05.237Z,18
2019-03-18T01:18:54.635Z,18.1
2019-03-18T01:19:44.155Z,18.1
2019-03-18T01:20:34.800Z,18.1
2019-03-18T01:21:25.416Z,18
2019-03-18T01:22:15.152Z,18.1
2019-03-18T01:23:04.695Z,18.1
2019-03-18T01:23:55.637Z,18.1
2019-03-18T01:24:45.612Z,18.1
2019-03-18T01:25:35.370Z,18.1
2019-03-18T01:26:25.568Z,18
2019-03-18T01:27:15.544Z,18
2019-03-18T01:28:06.130Z,18
2019-03-18T01:28:55.362Z,18.1
2019-03-18T01:29:45.689Z,18.1
2019-03-18T01:30:36.052Z,18.1
2019-03-18T01:31:26.399Z,18
2019-03-18T01:32:16.172Z,18.1
2019-03-18T01:33:05.689Z,18.1
2019-03-18T01:33:55.722Z,18.1
2019-03-18T01:34:46.604Z,18.1
2019-03-18T01:35:35.956Z,18
2019-03-18T01:36:25.684Z,18
2019-03-18T01:37:16.207Z,18
2019-03-18T01:38:06.582Z,18
2019-03-18T01:38:56.619Z,18.1
2019-03-18T01:39:46.125Z,18
2019-03-18T01:40:37.050Z,18
2019-03-18T01:41:26.923Z,18
2019-03-18T01:42:20.041Z,18
2019-03-18T01:43:06.933Z,18
2019-03-18T01:43:56.740Z,18
2019-03-18T01:44:46.781Z,18
2019-03-18T01:45:46.141Z,18
2019-03-18T01:46:26.634Z,18
2019-03-18T01:47:17.054Z,18
2019-03-18T01:48:07.036Z,18
2019-03-18T01:48:57.362Z,18
2019-03-18T01:49:46.865Z,18
2019-03-18T01:50:37.471Z,18
2019-03-18T01:51:26.712Z,18
2019-03-18T01:52:17.045Z,18
2019-03-18T01:53:07.388Z,18
2019-03-18T01:53:57.731Z,18
2019-03-18T01:54:47.816Z,18
2019-03-18T01:55:37.833Z,18
2019-03-18T01:56:27.978Z,18
2019-03-18T01:57:17.691Z,18.1
2019-03-18T01:58:07.743Z,18
2019-03-18T01:58:57.838Z,18
2019-03-18T01:59:48.127Z,18
2019-03-18T02:00:37.648Z,18
2019-03-18T02:01:28.263Z,18
2019-03-18T02:02:18.330Z,18
2019-03-18T02:03:07.927Z,18
2019-03-18T02:03:58.170Z,18
2019-03-18T02:04:48.216Z,18
2019-03-18T02:05:38.576Z,18
2019-03-18T02:06:28.175Z,18
2019-03-18T02:07:17.880Z,18
2019-03-18T02:08:08.197Z,18
2019-03-18T02:08:58.235Z,18
2019-03-18T02:09:48.034Z,18
2019-03-18T02:10:39.234Z,18
2019-03-18T02:11:28.697Z,18
2019-03-18T02:12:19.047Z,18
2019-03-18T02:13:08.544Z,18
2019-03-18T02:13:58.387Z,18
2019-03-18T02:14:48.954Z,18
2019-03-18T02:15:38.727Z,18
2019-03-18T02:16:29.069Z,18
2019-03-18T02:17:19.522Z,18
2019-03-18T02:18:08.940Z,18
2019-03-18T02:18:59.549Z,18
2019-03-18T02:19:49.662Z,18
2019-03-18T02:20:40.016Z,18
2019-03-18T02:21:29.748Z,18
2019-03-18T02:22:19.778Z,18
2019-03-18T02:23:09.556Z,18
2019-03-18T02:23:59.714Z,18
2019-03-18T02:24:49.954Z,18
2019-03-18T02:25:39.716Z,18
2019-03-18T02:26:28.999Z,18
2019-03-18T02:27:19.642Z,18
2019-03-18T02:28:10.271Z,18
2019-03-18T02:29:00.114Z,18
2019-03-18T02:29:50.306Z,18
2019-03-18T02:30:40.432Z,18
2019-03-18T02:31:30.228Z,18
2019-03-18T02:32:20.313Z,18
2019-03-18T02:33:10.774Z,18
2019-03-18T02:33:59.897Z,18
2019-03-18T02:34:50.478Z,18
2019-03-18T02:35:40.542Z,18
2019-03-18T02:36:30.852Z,18
2019-03-18T02:37:20.927Z,18
2019-03-18T02:38:10.717Z,18
2019-03-18T02:39:00.802Z,18
2019-03-18T02:39:50.817Z,18
2019-03-18T02:40:41.265Z,18
2019-03-18T02:41:30.678Z,18
2019-03-18T02:42:21.023Z,18
2019-03-18T02:43:10.571Z,18
2019-03-18T02:44:00.045Z,18
2019-03-18T02:44:51.547Z,18
2019-03-18T02:45:41.508Z,18
2019-03-18T02:46:31.175Z,18
2019-03-18T02:47:21.903Z,18
2019-03-18T02:48:10.899Z,18
2019-03-18T02:49:01.839Z,18
2019-03-18T02:49:51.533Z,18
2019-03-18T02:50:41.430Z,18
2019-03-18T02:51:32.264Z,18
2019-03-18T02:52:22.065Z,18
2019-03-18T02:53:12.383Z,18
2019-03-18T02:54:02.180Z,18
2019-03-18T02:54:52.195Z,18
2019-03-18T02:55:41.985Z,18
2019-03-18T02:56:32.359Z,18
2019-03-18T02:57:22.093Z,18
2019-03-18T02:58:12.153Z,18
2019-03-18T02:59:01.944Z,18
2019-03-18T02:59:52.655Z,18
2019-03-18T03:00:42.080Z,18
2019-03-18T03:01:32.102Z,18
2019-03-18T03:02:22.430Z,18
2019-03-18T03:03:12.321Z,18
2019-03-18T03:04:02.942Z,18
2019-03-18T03:07:33.241Z,17.9
2019-03-18T03:08:23.582Z,18
2019-03-18T03:09:13.752Z,18
2019-03-18T03:10:03.652Z,18
2019-03-18T03:10:53.917Z,18
2019-03-18T03:11:43.957Z,17.9
2019-03-18T03:12:34.363Z,17.9
2019-03-18T03:13:23.845Z,18
2019-03-18T03:14:14.158Z,18
2019-03-18T03:15:04.307Z,18
2019-03-18T03:15:54.304Z,18
2019-03-18T03:16:44.063Z,18
2019-03-18T03:17:34.696Z,18
2019-03-18T03:18:24.551Z,18
2019-03-18T03:19:14.328Z,17.9
2019-03-18T03:20:04.890Z,17.9
2019-03-18T03:20:54.623Z,17.9
2019-03-18T03:21:44.972Z,18
2019-03-18T03:22:34.500Z,18
2019-03-18T03:23:24.558Z,17.9
2019-03-18T03:24:14.836Z,17.9
2019-03-18T03:25:05.146Z,18
2019-03-18T03:25:55.015Z,17.9
2019-03-18T03:26:44.904Z,18
2019-03-18T03:27:35.512Z,18
2019-03-18T03:28:25.134Z,17.9
2019-03-18T03:29:15.075Z,18
2019-03-18T03:30:05.432Z,18
2019-03-18T03:30:55.915Z,17.9
2019-03-18T03:31:45.223Z,17.9
2019-03-18T03:32:35.633Z,18
2019-03-18T03:33:25.696Z,17.9
2019-03-18T03:34:18.884Z,17.9
2019-03-18T03:35:06.749Z,18
2019-03-18T03:35:55.145Z,18
2019-03-18T03:36:45.480Z,17.9
2019-03-18T03:37:35.998Z,18
2019-03-18T03:38:25.850Z,18
2019-03-18T03:39:15.422Z,18
2019-03-18T03:40:06.192Z,17.9
2019-03-18T03:40:55.807Z,18
2019-03-18T03:41:46.228Z,18
2019-03-18T03:42:36.044Z,18
2019-03-18T03:43:26.470Z,17.9
2019-03-18T03:44:16.101Z,17.9
2019-03-18T03:45:06.507Z,17.9
2019-03-18T03:45:56.417Z,17.9
2019-03-18T03:46:48.788Z,17.9
2019-03-18T03:47:36.980Z,17.9
2019-03-18T03:48:26.634Z,17.9
2019-03-18T03:49:16.443Z,17.9
2019-03-18T03:50:06.740Z,17.9
2019-03-18T03:50:56.447Z,17.9
2019-03-18T03:51:46.569Z,17.9
2019-03-18T03:52:36.630Z,17.9
2019-03-18T03:53:30.493Z,17.9
2019-03-18T03:54:17.109Z,17.9
2019-03-18T03:55:07.233Z,18
2019-03-18T03:55:57.152Z,17.9
2019-03-18T03:56:47.504Z,17.9
2019-03-18T03:57:36.825Z,17.9
2019-03-18T03:58:27.337Z,17.9
2019-03-18T03:59:17.691Z,17.9
2019-03-18T04:00:07.355Z,17.9
2019-03-18T04:00:57.500Z,17.9
2019-03-18T04:01:47.348Z,17.9
2019-03-18T04:02:37.947Z,17.9
2019-03-18T04:03:44.171Z,17.9
2019-03-18T04:04:17.557Z,17.9
2019-03-18T04:05:07.432Z,17.9
2019-03-18T04:05:57.460Z,17.9
2019-03-18T04:06:47.646Z,17.9
2019-03-18T04:07:37.943Z,17.9
2019-03-18T04:08:27.908Z,17.9
2019-03-18T04:09:17.648Z,18
2019-03-18T04:10:07.982Z,18
2019-03-18T04:10:58.218Z,18
2019-03-18T04:11:48.290Z,18
2019-03-18T04:12:38.594Z,18
2019-03-18T04:13:27.873Z,18
2019-03-18T04:14:18.714Z,18.1
2019-03-18T04:15:07.800Z,18.1
2019-03-18T04:15:58.979Z,18.1
2019-03-18T04:17:07.689Z,18.1
2019-03-18T04:17:38.690Z,18.1
2019-03-18T04:18:28.216Z,18.1
2019-03-18T04:19:18.793Z,18.1
2019-03-18T04:20:08.093Z,18.1
2019-03-18T04:20:59.038Z,18.1
2019-03-18T04:21:52.898Z,18.1
2019-03-18T04:22:38.519Z,18.1
2019-03-18T04:23:29.256Z,18.1
2019-03-18T04:24:18.138Z,18.1
2019-03-18T04:25:23.753Z,18.1
2019-03-18T04:25:59.318Z,18.1
2019-03-18T04:26:48.900Z,18.1
2019-03-18T04:27:39.396Z,18.1
2019-03-18T04:28:29.482Z,18.1
2019-03-18T04:29:19.575Z,18.1
2019-03-18T04:30:09.967Z,18.1
2019-03-18T04:30:59.406Z,18.2
2019-03-18T04:31:49.502Z,18.2
2019-03-18T04:32:39.869Z,18.2
2019-03-18T04:33:29.798Z,18.2
2019-03-18T04:34:19.871Z,18.2
2019-03-18T04:35:09.100Z,18.2
2019-03-18T04:36:00.082Z,18.2
2019-03-18T04:36:50.359Z,18.2
2019-03-18T04:37:39.595Z,18.2
2019-03-18T04:38:30.184Z,18.2
2019-03-18T04:39:19.499Z,18.2
2019-03-18T04:40:10.350Z,18.2
2019-03-18T04:41:00.322Z,18.2
2019-03-18T04:41:50.114Z,18.2
2019-03-18T04:42:40.709Z,18.2
2019-03-18T04:43:30.488Z,18.2
2019-03-18T04:44:20.271Z,18.3
2019-03-18T04:45:10.634Z,18.2
2019-03-18T04:46:00.675Z,18.2
2019-03-18T04:46:50.190Z,18.2
2019-03-18T04:47:41.076Z,18.3
2019-03-18T04:48:30.573Z,18.3
2019-03-18T04:49:20.668Z,18.3
2019-03-18T04:50:10.171Z,18.3
2019-03-18T04:51:01.316Z,18.3
2019-03-18T04:51:50.863Z,18.3
2019-03-18T04:52:40.356Z,18.3
2019-03-18T04:53:30.936Z,18.3
2019-03-18T04:54:20.759Z,18.3
2019-03-18T04:55:11.369Z,18.3
2019-03-18T04:56:01.666Z,18.3
2019-03-18T04:56:51.223Z,18.3
2019-03-18T04:57:41.281Z,18.3
2019-03-18T04:58:31.930Z,18.3
2019-03-18T04:59:21.195Z,18.3
2019-03-18T05:00:11.168Z,18.3
2019-03-18T05:01:01.267Z,18.3
2019-03-18T05:01:51.532Z,18.3
2019-03-18T05:02:41.324Z,18.3
2019-03-18T05:03:32.013Z,18.3
2019-03-18T05:04:21.225Z,18.3
2019-03-18T05:05:12.103Z,18.3
2019-03-18T05:06:01.833Z,18.3
2019-03-18T05:06:52.223Z,18.3
2019-03-18T05:07:41.672Z,18.3
2019-03-18T05:08:32.062Z,18.3
2019-03-18T05:09:22.345Z,18.3
2019-03-18T05:10:12.729Z,18.3
2019-03-18T05:11:01.922Z,18.3
2019-03-18T05:11:51.699Z,18.3
2019-03-18T05:12:42.332Z,18.3
2019-03-18T05:13:32.425Z,18.3
2019-03-18T05:14:22.454Z,18.3
2019-03-18T05:15:12.839Z,18.3
2019-03-18T05:16:02.624Z,18.4
2019-03-18T05:16:52.335Z,18.4
2019-03-18T05:17:42.684Z,18.4
2019-03-18T05:18:32.168Z,18.4
2019-03-18T05:19:23.126Z,18.4
2019-03-18T05:20:12.647Z,18.4
2019-03-18T05:21:02.969Z,18.4
2019-03-18T05:21:52.979Z,18.4
2019-03-18T05:22:43.692Z,18.4
2019-03-18T05:23:32.801Z,18.4
2019-03-18T05:24:23.158Z,18.4
2019-03-18T05:25:13.238Z,18.4
2019-03-18T05:26:03.849Z,18.4
2019-03-18T05:26:53.161Z,18.4
2019-03-18T05:27:43.140Z,18.4
2019-03-18T05:28:33.429Z,18.4
2019-03-18T05:29:23.811Z,18.4
2019-03-18T05:30:13.569Z,18.4
2019-03-18T05:31:03.684Z,18.4
2019-03-18T05:31:54.097Z,18.4
2019-03-18T05:32:44.356Z,18.4
2019-03-18T05:33:33.838Z,18.4
2019-03-18T05:34:23.622Z,18.4
2019-03-18T05:35:13.994Z,18.4
2019-03-18T05:36:04.092Z,18.4
2019-03-18T05:36:54.678Z,18.4
2019-03-18T05:37:44.241Z,18.4
2019-03-18T05:38:34.184Z,18.4
2019-03-18T05:39:23.960Z,18.4
2019-03-18T05:40:14.092Z,18.4
2019-03-18T05:41:04.923Z,18.4
2019-03-18T05:41:53.873Z,18.4
2019-03-18T05:42:44.530Z,18.4
2019-03-18T05:43:34.534Z,18.4
2019-03-18T05:44:24.633Z,18.4
2019-03-18T05:45:14.840Z,18.4
2019-03-18T05:46:04.719Z,18.4
2019-03-18T05:46:53.959Z,18.4
2019-03-18T05:47:45.902Z,18.4
2019-03-18T05:48:34.994Z,18.4
2019-03-18T05:49:24.677Z,18.4
2019-03-18T05:50:14.880Z,18.4
2019-03-18T05:51:04.560Z,18.4
2019-03-18T05:51:55.418Z,18.4
2019-03-18T05:52:45.492Z,18.4
2019-03-18T05:53:35.238Z,18.4
2019-03-18T05:54:25.584Z,18.5
2019-03-18T05:55:14.891Z,18.5
2019-03-18T05:56:05.005Z,18.4
2019-03-18T05:56:55.863Z,18.5
2019-03-18T05:57:45.846Z,18.5
2019-03-18T05:58:35.643Z,18.5
2019-03-18T05:59:25.506Z,18.5
2019-03-18T06:00:15.474Z,18.5
2019-03-18T06:01:05.363Z,18.5
2019-03-18T06:01:55.598Z,18.5
2019-03-18T06:02:49.694Z,18.5
2019-03-18T06:03:35.700Z,18.5
2019-03-18T06:05:33.178Z,18.5
2019-03-18T06:06:23.276Z,16.6
2019-03-18T06:07:13.310Z,15.1
2019-03-18T06:08:03.455Z,14.3
2019-03-18T06:08:53.705Z,16.3
2019-03-18T06:09:43.227Z,18.3
2019-03-18T06:10:33.018Z,19.4
2019-03-18T06:11:23.622Z,19.3
2019-03-18T06:12:14.295Z,18.6
2019-03-18T06:13:03.990Z,17.8
2019-03-18T06:13:56.869Z,17.2
2019-03-18T06:14:44.205Z,16.9
2019-03-18T06:16:24.507Z,17.3
2019-03-18T06:17:14.584Z,17.6
2019-03-18T06:18:04.447Z,18
2019-03-18T06:18:53.850Z,18.2
2019-03-18T06:19:44.179Z,18.3
2019-03-18T06:20:34.539Z,18.3
2019-03-18T06:21:23.758Z,18.2
2019-03-18T06:22:13.562Z,18.2
2019-03-18T06:23:04.442Z,18.3
2019-03-18T06:23:54.227Z,18.4
2019-03-18T06:24:45.191Z,18.6
2019-03-18T06:26:24.949Z,18.8
2019-03-18T06:27:14.260Z,18.9
2019-03-18T06:28:05.358Z,19.1
2019-03-18T06:28:55.424Z,19.2
2019-03-18T06:29:45.244Z,19.3
2019-03-18T06:30:34.980Z,19.4
2019-03-18T06:31:25.042Z,19.5
2019-03-18T06:32:15.137Z,19.7
2019-03-18T06:33:05.200Z,19.8
2019-03-18T06:33:55.523Z,19.9
2019-03-18T06:34:44.726Z,20
2019-03-18T06:35:35.362Z,20.1
2019-03-18T06:36:25.484Z,20.3
2019-03-18T06:37:15.443Z,20.4
2019-03-18T06:38:05.252Z,20.5
2019-03-18T06:38:55.576Z,20.6
2019-03-18T06:39:45.339Z,20.8
2019-03-18T06:40:35.953Z,20.9
2019-03-18T06:41:26.313Z,20.9
2019-03-18T06:42:18.467Z,21.1
2019-03-18T06:43:05.406Z,21.2
2019-03-18T06:43:56.288Z,21.3
2019-03-18T06:44:45.995Z,21.4
2019-03-18T06:45:36.058Z,21.6
2019-03-18T06:46:25.003Z,21.7
2019-03-18T06:47:15.638Z,21.8
2019-03-18T06:48:13.444Z,21.9
2019-03-18T06:48:56.903Z,22.1
2019-03-18T06:49:46.633Z,22.3
2019-03-18T06:50:36.153Z,22.4
2019-03-18T06:51:27.058Z,22.5
2019-03-18T06:52:16.842Z,22.6
2019-03-18T06:53:06.367Z,22.8
2019-03-18T06:53:57.238Z,22.9
2019-03-18T06:54:46.998Z,23.1
2019-03-18T06:55:37.093Z,23.2
2019-03-18T06:56:27.158Z,23.3
2019-03-18T06:57:16.915Z,23.4
2019-03-18T06:58:07.251Z,23.6
2019-03-18T06:58:56.261Z,23.7
2019-03-18T06:59:47.117Z,23.8
2019-03-18T07:00:36.600Z,24
2019-03-18T07:01:26.930Z,24.1
2019-03-18T07:02:16.702Z,24.3
2019-03-18T07:03:07.350Z,24.4
2019-03-18T10:06:33.597Z,53.4
2019-03-18T10:07:23.277Z,53.5
2019-03-18T10:08:13.840Z,53.6
2019-03-18T10:09:17.644Z,53.7
2019-03-18T10:09:52.958Z,53.8
2019-03-18T10:10:44.385Z,53.9
2019-03-18T10:11:33.645Z,54
2019-03-18T10:12:38.557Z,54.1
2019-03-18T10:13:13.787Z,54.3
2019-03-18T10:14:21.410Z,54.3
2019-03-18T10:14:54.672Z,54.5
2019-03-18T10:15:43.437Z,54.5
2019-03-18T10:16:33.446Z,54.7
2019-03-18T10:17:24.336Z,54.8
2019-03-18T10:18:14.379Z,54.9
2019-03-18T10:19:03.919Z,55
2019-03-18T10:19:57.499Z,55.1
2019-03-18T10:20:44.061Z,55.3
2019-03-18T10:21:33.824Z,55.3
2019-03-18T10:22:24.396Z,55.4
2019-03-18T10:23:14.234Z,55.5
2019-03-18T10:24:04.824Z,55.6
2019-03-18T10:24:54.675Z,55.8
2019-03-18T10:25:44.644Z,55.8
2019-03-18T10:26:34.442Z,55.9
2019-03-18T10:27:24.556Z,56.1
2019-03-18T10:28:17.701Z,56.2
2019-03-18T10:29:05.216Z,56.3
2019-03-18T10:29:54.121Z,56.3
2019-03-18T10:30:44.830Z,56.4
2019-03-18T10:31:34.823Z,56.6
2019-03-18T10:32:24.288Z,56.7
2019-03-18T10:33:15.483Z,56.8
2019-03-18T10:34:05.549Z,56.9
2019-03-18T10:34:55.118Z,57
2019-03-18T10:35:45.093Z,57.1
2019-03-18T10:36:35.458Z,57.1
2019-03-18T10:37:25.578Z,57.2
2019-03-18T10:38:15.551Z,57.3
2019-03-18T10:39:05.903Z,57.4
2019-03-18T10:39:55.949Z,57.6
2019-03-18T10:40:45.190Z,57.6
2019-03-18T10:41:35.325Z,57.7
2019-03-18T10:42:25.607Z,57.8
2019-03-18T10:43:15.943Z,57.9
2019-03-18T10:44:05.436Z,58
2019-03-18T10:45:45.805Z,58.2
2019-03-18T10:46:36.145Z,58.3
2019-03-18T10:47:25.672Z,58.4
2019-03-18T10:48:15.717Z,58.5
2019-03-18T10:49:56.138Z,58.7
2019-03-18T10:50:45.897Z,58.8
2019-03-18T10:51:37.593Z,58.9
2019-03-18T10:52:26.845Z,58.9
2019-03-18T10:53:16.863Z,59.1
2019-03-18T10:54:06.466Z,59.2
2019-03-18T10:54:57.217Z,59.3
2019-03-18T10:55:47.137Z,59.3
2019-03-18T10:56:36.854Z,59.4
2019-03-18T10:57:26.390Z,59.5
2019-03-18T10:58:20.037Z,59.6
2019-03-18T10:59:06.815Z,59.7
2019-03-18T10:59:57.212Z,59.8
2019-03-18T11:00:46.408Z,59.9
2019-03-18T11:01:36.975Z,59.9
2019-03-18T11:02:27.296Z,60.1
2019-03-18T11:03:16.807Z,60.1
2019-03-18T11:04:07.437Z,60.2
2019-03-18T11:04:56.951Z,60.3
2019-03-18T11:05:46.707Z,60.4
2019-03-18T11:06:37.381Z,60.4
2019-03-18T11:07:27.963Z,60.6
2019-03-18T11:08:18.004Z,60.6
2019-03-18T11:09:07.796Z,60.8
2019-03-18T11:09:57.303Z,60.8
2019-03-18T11:10:47.643Z,60.9
2019-03-18T11:11:36.955Z,60.9
2019-03-18T11:12:27.458Z,61.1
2019-03-18T11:13:17.619Z,61.1
2019-03-18T11:14:08.161Z,61.2
2019-03-18T11:14:58.224Z,61.3
2019-03-18T11:15:48.031Z,61.3
2019-03-18T11:16:38.348Z,61.4
2019-03-18T11:17:27.862Z,61.5
2019-03-18T11:18:18.810Z,61.6
2019-03-18T11:19:08.550Z,61.6
2019-03-18T11:20:03.440Z,61.7
2019-03-18T11:20:48.658Z,61.8
2019-03-18T11:21:38.404Z,61.9
2019-03-18T11:22:28.193Z,61.9
2019-03-18T11:23:17.958Z,62
2019-03-18T11:24:08.326Z,62.1
2019-03-18T11:24:58.645Z,62.1
2019-03-18T11:25:49.260Z,62.3
2019-03-18T11:26:39.310Z,62.3
2019-03-18T11:27:29.160Z,62.4
2019-03-18T11:28:18.644Z,62.4
2019-03-18T11:29:11.588Z,62.5
2019-03-18T11:29:59.295Z,62.6
2019-03-18T11:30:49.358Z,62.6
2019-03-18T11:31:38.672Z,62.7
2019-03-18T11:32:29.538Z,62.8
2019-03-18T11:33:19.517Z,62.8
2019-03-18T11:34:09.041Z,62.9
2019-03-18T11:34:59.460Z,62.9
2019-03-18T11:35:50.060Z,63
2019-03-18T11:36:39.795Z,63.1
2019-03-18T11:37:29.007Z,63.1
2019-03-18T11:38:19.695Z,63.2
2019-03-18T11:39:09.680Z,63.3
2019-03-18T11:39:59.729Z,63.3
2019-03-18T11:40:50.307Z,63.4
2019-03-18T11:41:42.672Z,63.4
2019-03-18T11:42:30.523Z,63.5
2019-03-18T11:43:19.753Z,63.6
2019-03-18T11:44:10.325Z,63.6
2019-03-18T11:45:00.874Z,63.7
2019-03-18T11:45:50.206Z,63.8
2019-03-18T11:46:42.571Z,63.8
2019-03-18T11:47:30.019Z,63.9
2019-03-18T11:48:20.630Z,63.9
2019-03-18T11:49:10.426Z,64
2019-03-18T11:50:14.515Z,64.1
2019-03-18T11:50:50.792Z,64.1
2019-03-18T11:51:40.801Z,64.1
2019-03-18T11:52:33.788Z,64.2
2019-03-18T11:53:20.459Z,64.2
2019-03-18T11:54:10.862Z,64.3
2019-03-18T11:55:01.139Z,64.3
2019-03-18T11:55:50.879Z,64.4
2019-03-18T11:56:40.692Z,64.4
2019-03-18T11:57:31.576Z,64.4
2019-03-18T11:58:21.081Z,64.5
2019-03-18T11:59:10.667Z,64.6
2019-03-18T12:00:01.950Z,64.7
2019-03-18T12:00:51.843Z,64.8
2019-03-18T12:01:41.299Z,64.8
2019-03-18T12:02:33.803Z,64.8
2019-03-18T12:03:21.158Z,64.9
2019-03-18T12:04:11.474Z,64.9
2019-03-18T12:06:33.165Z,65
2019-03-18T12:07:22.140Z,65.1
2019-03-18T12:08:12.840Z,65.2
2019-03-18T12:09:03.357Z,65.2
2019-03-18T12:09:53.139Z,65.3
2019-03-18T12:10:43.192Z,65.3
2019-03-18T12:11:33.540Z,65.3
2019-03-18T12:12:23.638Z,65.4
2019-03-18T12:13:13.388Z,65.5
2019-03-18T12:14:03.762Z,65.5
2019-03-18T12:14:53.848Z,65.6
2019-03-18T12:15:43.840Z,65.6
2019-03-18T12:16:33.142Z,65.6
2019-03-18T12:17:23.422Z,65.7
2019-03-18T12:18:13.213Z,65.7
2019-03-18T12:19:04.099Z,65.8
2019-03-18T12:19:54.152Z,65.8
2019-03-18T12:20:44.289Z,65.8
2019-03-18T12:21:34.014Z,65.8
2019-03-18T12:22:24.312Z,65.9
2019-03-18T12:23:14.104Z,65.9
2019-03-18T12:24:04.179Z,65.9
2019-03-18T12:24:54.259Z,65.9
2019-03-18T12:25:44.012Z,66
2019-03-18T12:26:34.334Z,66
2019-03-18T12:27:24.139Z,66.1
2019-03-18T12:28:13.645Z,66.1
2019-03-18T12:29:04.286Z,66.1
2019-03-18T12:29:54.869Z,66.1
2019-03-18T12:30:44.660Z,66.1
2019-03-18T12:31:35.004Z,66.2
2019-03-18T12:32:25.046Z,66.3
2019-03-18T12:33:14.862Z,66.3
2019-03-18T12:34:05.011Z,66.2
2019-03-18T12:34:54.681Z,66.3
2019-03-18T12:35:45.041Z,66.3
2019-03-18T12:36:35.374Z,66.3
2019-03-18T12:37:24.873Z,66.4
2019-03-18T12:38:15.480Z,66.4
2019-03-18T12:39:05.059Z,66.5
2019-03-18T12:39:55.346Z,66.4
2019-03-18T12:40:45.661Z,66.4
2019-03-18T12:41:35.751Z,66.4
2019-03-18T12:42:25.801Z,66.5
2019-03-18T12:43:15.858Z,66.4
2019-03-18T12:44:06.345Z,66.5
2019-03-18T12:44:56.245Z,66.5
2019-03-18T12:45:46.321Z,66.6
2019-03-18T12:46:35.816Z,66.5
2019-03-18T12:47:25.326Z,66.6
2019-03-18T12:48:16.211Z,66.5
2019-03-18T12:49:06.604Z,66.5
2019-03-18T12:49:56.089Z,66.6
2019-03-18T12:51:02.062Z,66.6
2019-03-18T12:51:36.484Z,66.6
2019-03-18T12:52:26.511Z,66.6
2019-03-18T12:53:16.591Z,66.6
2019-03-18T12:54:06.375Z,66.6
2019-03-18T12:54:56.960Z,66.6
2019-03-18T12:55:45.918Z,66.6
2019-03-18T12:56:36.809Z,66.6
2019-03-18T12:57:26.585Z,66.7
2019-03-18T12:58:16.473Z,66.7
2019-03-18T12:59:06.997Z,66.7
2019-03-18T12:59:57.047Z,66.7
2019-03-18T13:00:47.123Z,66.7
2019-03-18T13:01:37.258Z,66.8
2019-03-18T13:02:27.050Z,66.8
2019-03-18T13:03:17.582Z,66.8
2019-03-18T13:04:07.092Z,66.8
2019-03-18T13:04:57.132Z,66.8
2019-03-18T13:05:47.284Z,66.8
2019-03-18T13:06:38.610Z,66.8
2019-03-18T13:07:27.468Z,66.8
2019-03-18T13:08:17.112Z,66.8
2019-03-18T13:09:07.168Z,66.8
2019-03-18T13:09:57.805Z,66.8
2019-03-18T13:10:47.834Z,66.8
2019-03-18T13:11:37.724Z,66.8
2019-03-18T13:12:28.251Z,66.8
2019-03-18T13:13:17.764Z,66.8
2019-03-18T13:14:07.306Z,66.8
2019-03-18T13:14:58.453Z,66.8
2019-03-18T13:15:48.681Z,66.8
2019-03-18T13:16:38.006Z,66.8
2019-03-18T13:17:28.366Z,66.8
2019-03-18T13:18:18.467Z,66.8
2019-03-18T13:19:08.474Z,66.8
2019-03-18T13:19:58.496Z,66.8
2019-03-18T13:20:48.301Z,66.8
2019-03-18T13:21:38.100Z,66.8
2019-03-18T13:22:28.804Z,66.8
2019-03-18T13:23:18.211Z,66.8
2019-03-18T13:24:08.536Z,66.8
2019-03-18T13:24:58.591Z,66.8
2019-03-18T13:25:48.661Z,66.8
2019-03-18T13:26:39.011Z,66.8
2019-03-18T13:27:28.807Z,66.8
2019-03-18T13:28:18.574Z,66.8
2019-03-18T13:29:09.198Z,66.8
2019-03-18T13:29:58.948Z,66.8
2019-03-18T13:30:48.748Z,66.8
2019-03-18T13:31:39.111Z,66.8
2019-03-18T13:32:29.701Z,66.6
2019-03-18T13:33:19.192Z,66.3
2019-03-18T13:34:08.980Z,66
2019-03-18T13:34:59.630Z,65.8
2019-03-18T13:35:49.429Z,65.7
2019-03-18T13:36:39.460Z,65.7
2019-03-18T13:37:29.515Z,65.8
2019-03-18T13:38:20.126Z,65.8
2019-03-18T13:39:09.921Z,65.8
2019-03-18T13:39:59.431Z,65.8
2019-03-18T13:40:50.728Z,65.8
2019-03-18T13:41:39.826Z,65.7
2019-03-18T13:42:30.421Z,65.7
2019-03-18T13:43:20.213Z,65.6
2019-03-18T13:44:10.593Z,65.6
2019-03-18T13:45:00.339Z,65.6
2019-03-18T13:46:00.683Z,65.6
2019-03-18T13:46:40.495Z,65.6
2019-03-18T13:47:30.220Z,65.5
2019-03-18T13:48:20.315Z,65.5
2019-03-18T13:49:10.630Z,65.4
2019-03-18T13:50:00.165Z,65.4
2019-03-18T13:50:50.767Z,65.4
2019-03-18T13:51:40.242Z,65.3
2019-03-18T13:52:30.598Z,65.3
2019-03-18T13:53:19.557Z,65.3
2019-03-18T13:54:10.734Z,65.2
2019-03-18T13:55:00.855Z,65.1
2019-03-18T13:55:51.407Z,65.1
2019-03-18T13:56:40.906Z,65
2019-03-18T13:57:30.180Z,64.9
2019-03-18T13:58:21.644Z,64.9
2019-03-18T13:59:11.377Z,64.8
2019-03-18T14:00:01.425Z,64.8
2019-03-18T14:00:50.654Z,64.7
2019-03-18T14:01:41.137Z,64.6
2019-03-18T14:02:31.874Z,64.6
2019-03-18T14:03:21.107Z,64.5
2019-03-18T14:04:11.217Z,64.4
2019-03-18T14:05:01.098Z,64.3
2019-03-18T14:07:32.546Z,64.1
2019-03-18T14:08:22.592Z,63.9
2019-03-18T14:09:12.960Z,63.8
2019-03-18T14:10:03.560Z,63.7
2019-03-18T14:10:52.790Z,63.6
2019-03-18T14:11:43.193Z,63.6
2019-03-18T14:12:33.440Z,63.5
2019-03-18T14:13:23.238Z,63.4
2019-03-18T14:14:13.287Z,63.4
2019-03-18T14:15:04.175Z,63.3
2019-03-18T14:15:53.430Z,63.3
2019-03-18T14:16:43.219Z,63.2
2019-03-18T14:17:32.987Z,63.1
2019-03-18T14:18:23.132Z,63.1
2019-03-18T14:19:13.677Z,63
2019-03-18T14:20:06.215Z,62.9
2019-03-18T14:20:53.245Z,62.8
2019-03-18T14:21:43.365Z,62.8
2019-03-18T14:22:34.459Z,62.7
2019-03-18T14:23:24.540Z,62.6
2019-03-18T14:24:14.640Z,62.5
2019-03-18T14:25:04.407Z,62.4
2019-03-18T14:25:53.132Z,62.4
2019-03-18T14:26:44.222Z,62.3
2019-03-18T14:27:34.562Z,62.2
2019-03-18T14:28:23.787Z,62.1